Flight Track Log - Related Links

Times and Time Zones

All times are in EDT time to prevent confusion due to time zone crossing. See the CPZ5841 flight status page for this flight to view local times or setup timezone preferences in your user account.

Time Position Orientation Groundspeed Altitude Reporting Facility
EDT Latitude Longitude Course Direction KTS MPH feet Rate Location/Type
Thu 11:18:02 PM 44.8833 -93.1333 290° West 199 229 2,700  Level Minneapolis TRACON
Thu 11:18:34 PM 44.8758 -93.0881 103° East 222 255 3,500 2,323 Climbing Minneapolis Center
Thu 11:19:35 PM 44.9339 -93.0678 14° North 251 289 6,300 2,683 Climbing Minneapolis Center
Thu 11:20:00 PM 45.0181 -93.6608 291° West  Level FlightAware Approximate
Thu 11:20:37 PM 44.9725 -93.1497 304° West 257 296 9,000  Level Minneapolis Center
Thu 11:21:00 PM 45.0526 -93.7744 295° West  Level FlightAware Approximate
Thu 11:21:38 PM 45.0094 -93.2486 298° West 291 335 11,400  Level Minneapolis Center
Thu 11:22:00 PM 45.0875 -93.8876 286° West  Level FlightAware Approximate
Thu 11:22:40 PM 45.0256 -93.3769 280° West 339 390 13,300  Level Minneapolis Center
Thu 11:23:00 PM 45.1166 -94.0163 290° West  Level FlightAware Approximate
Thu 11:23:41 PM 45.0458 -93.5378 280° West 349 402 15,900  Level Minneapolis Center
Thu 11:24:43 PM 45.0644 -93.6792 281° West 365 420 18,200 2,000 Climbing Minneapolis Center
Thu 11:25:56 PM 45.0814 -93.8225 280° West 371 427 20,400 1,911 Climbing Minneapolis Center
Thu 11:26:58 PM 45.1181 -93.9961 287° West 386 444 22,500 1,742 Climbing Minneapolis Center
Thu 11:28:00 PM 45.1531 -94.1422 289° West 393 452 24,000 1,463 Climbing Minneapolis Center
Thu 11:29:01 PM 45.1889 -94.2931 289° West 402 463 25,500 1,377 Climbing Minneapolis Center
Thu 11:30:02 PM 45.2264 -94.4450 289° West 409 471 26,800 1,317 Climbing Minneapolis Center
Thu 11:31:04 PM 45.2697 -94.6300 288° West 413 475 28,200 1,073 Climbing Minneapolis Center
Thu 11:32:05 PM 45.3031 -94.7656 289° West 416 479 29,000 1,171 Climbing Minneapolis Center
Thu 11:33:07 PM 45.3472 -94.9539 289° West 419 482 30,600 1,366 Climbing Minneapolis Center
Thu 11:34:08 PM 45.3825 -95.1100 288° West 419 482 31,800 689 Climbing Minneapolis Center
Thu 11:35:09 PM 45.4175 -95.2617 288° West 410 472 32,000 98 Climbing Minneapolis Center
Thu 11:36:11 PM 45.4519 -95.4144 288° West 408 470 32,000 293 Level Minneapolis Center
Thu 11:37:12 PM 45.4878 -95.5706 288° West 414 476 32,600 878 Climbing Minneapolis Center
Thu 11:38:14 PM 45.5231 -95.7250 288° West 413 475 33,800 1,171 Climbing Minneapolis Center
Thu 11:39:15 PM 45.5592 -95.8750 289° West 405 466 35,000 985 Climbing Minneapolis Center
Thu 11:40:28 PM 45.6139 -96.0114 300° West 398 458 36,000 444 Climbing Minneapolis Center
Thu 11:41:30 PM 45.6733 -96.2192 292° West 406 467 36,000  Level Minneapolis Center
Thu 11:42:31 PM 45.7125 -96.3725 290° West 411 473 36,000  Level Minneapolis Center
Thu 11:43:32 PM 45.7531 -96.5197 292° West 403 464 36,000  Level Minneapolis Center
Thu 11:44:34 PM 45.7919 -96.6692 291° West 402 463 36,000  Level Minneapolis Center
Thu 11:45:35 PM 45.8308 -96.8167 291° West 399 459 36,000  Level Minneapolis Center
Thu 11:46:36 PM 45.8703 -96.9633 291° West 396 456 36,000  Level Minneapolis Center
Thu 11:47:37 PM 45.9128 -97.1269 291° West 399 459 36,000  Level Minneapolis Center
Thu 11:48:39 PM 45.9500 -97.2744 290° West 396 456 36,000  Level Minneapolis Center
Thu 11:49:40 PM 45.9878 -97.4222 290° West 395 455 36,000  Level Minneapolis Center
Thu 11:50:41 PM 46.0264 -97.5694 291° West 395 455 36,000  Level Minneapolis Center
Thu 11:51:42 PM 46.0561 -97.6900 290° West 398 458 36,000  Level Minneapolis Center
Thu 11:52:55 PM 46.0997 -97.8669 290° West 392 451 36,000  Level Minneapolis Center
Thu 11:53:56 PM 46.1367 -98.0144 290° West 391 450 36,000  Level Minneapolis Center
Thu 11:54:58 PM 46.1817 -98.1942 290° West 396 456 36,000  Level Minneapolis Center
Thu 11:55:59 PM 46.2181 -98.3422 290° West 395 455 36,000 -787 Level Minneapolis Center
Thu 11:57:00 PM 46.2536 -98.4886 289° West 391 450 34,400 -1,672 Descending Minneapolis Center
Thu 11:58:01 PM 46.2814 -98.6044 289° West 386 444 32,600 -2,459 Descending Minneapolis Center
Thu 11:59:02 PM 46.3325 -98.8158 289° West 393 452 29,400 -2,732 Descending Minneapolis Center
Fri 12:00:04 AM 46.3694 -98.9692 289° West 399 459 27,000 -2,293 Descending Minneapolis Center
Fri 12:01:05 AM 46.4039 -99.1153 289° West 394 453 24,700 -2,164 Descending Minneapolis Center
Fri 12:02:06 AM 46.4364 -99.2556 289° West 380 437 22,600 -1,970 Descending Minneapolis Center
Fri 12:03:19 AM 46.4708 -99.4047 289° West 367 422 20,300 -2,194 Descending Minneapolis Center
Fri 12:04:20 AM 46.5069 -99.5603 289° West 351 404 17,700 -2,361 Descending Minneapolis Center
Fri 12:05:21 AM 46.5369 -99.6903 289° West 344 396 15,500 -2,016 Descending Minneapolis Center
Fri 12:06:22 AM 46.5661 -99.8186 288° West 340 391 13,600 -1,869 Descending Minneapolis Center
Fri 12:07:23 AM 46.5919 -99.9308 289° West 329 379 11,700 -1,574 Descending Minneapolis Center
Fri 12:08:24 AM 46.6167 -100.0425 288° West 308 354 10,400 -1,522 Descending Minneapolis Center
Fri 12:09:37 AM 46.6314 -100.1622 280° West 257 296 8,300 -1,881 Descending Minneapolis Center
Fri 12:10:38 AM 46.6475 -100.2761 282° West 245 282 6,200 -1,574 Descending Minneapolis Center
Fri 12:11:39 AM 46.6608 -100.3739 281° West 243 280 5,100 -787 Descending Minneapolis Center
Fri 12:12:40 AM 46.6744 -100.4711 282° West 242 278 4,600 -672 Descending Minneapolis Center
Fri 12:13:53 AM 46.6892 -100.5789 281° West 231 266 3,600 -537 Descending Minneapolis Center
Fri 12:14:54 AM 46.6989 -100.6461 282° West 170 196 3,400 -393 Descending Minneapolis Center
Fri 12:15:55 AM 46.7233 -100.6817 315° West 123 142 2,800 -541 Descending Minneapolis Center
Fri 12:16:56 AM 46.7417 -100.7058 318° Northwest 107 123 2,300 -590 Descending Minneapolis Center
Fri 12:17:57 AM 46.7697 -100.7417 319° Northwest 114 131 1,600 -295 Descending Minneapolis Center
Fri 12:18:58 AM 46.7928 -100.7711 319° Northwest 113 130 1,700 98 Climbing Minneapolis Center
Fri 12:20:00 AM 46.7727 -100.7458 126° Southeast  Level Estimated

Login

Don't have an account? Register now (free) for customized features, flight alerts, and more!